createdAt,value
2023-04-19T05:00:01.663Z,69
2023-04-19T05:05:00.381Z,67
2023-04-19T05:10:00.301Z,66
2023-04-19T05:15:00.237Z,65
2023-04-19T05:20:00.275Z,65
2023-04-19T05:25:00.238Z,64
2023-04-19T05:30:00.289Z,64
2023-04-19T05:35:00.253Z,62
2023-04-19T05:40:00.416Z,62
2023-04-19T05:45:00.189Z,62
2023-04-19T05:50:00.245Z,61
2023-04-19T05:55:00.320Z,62
2023-04-19T06:05:02.859Z,62
2023-04-19T06:10:00.310Z,61
2023-04-19T06:15:00.254Z,61
2023-04-19T06:20:00.278Z,61
2023-04-19T06:25:00.288Z,61
2023-04-19T06:30:00.270Z,61
2023-04-19T06:35:00.268Z,61
2023-04-19T06:40:00.270Z,61
2023-04-19T06:45:00.194Z,61
2023-04-19T06:50:00.272Z,60
2023-04-19T06:55:00.283Z,60
2023-04-19T07:00:00.336Z,60
2023-04-19T07:05:00.220Z,60
2023-04-19T07:10:00.328Z,59
2023-04-19T07:15:00.275Z,59
2023-04-19T07:20:00.225Z,59
2023-04-19T07:25:00.297Z,59
2023-04-19T07:30:00.426Z,59
2023-04-19T07:35:00.204Z,59
2023-04-19T07:40:00.280Z,59
2023-04-19T07:45:00.244Z,59
2023-04-19T07:50:00.346Z,59
2023-04-19T07:55:00.266Z,59
2023-04-19T08:00:00.295Z,59
2023-04-19T08:05:00.382Z,58
2023-04-19T08:10:00.406Z,58
2023-04-19T08:15:07.758Z,57
2023-04-19T08:20:00.255Z,57
2023-04-19T08:25:00.236Z,57
2023-04-19T08:30:00.236Z,57
2023-04-19T08:35:00.241Z,57
2023-04-19T08:40:00.267Z,56
2023-04-19T08:50:11.123Z,56
2023-04-19T08:55:00.239Z,56
2023-04-19T09:00:00.242Z,56
2023-04-19T09:05:00.473Z,56
2023-04-19T09:10:03.432Z,56
2023-04-19T09:15:02.356Z,56
2023-04-19T09:20:00.263Z,56
2023-04-19T09:30:00.364Z,56
2023-04-19T09:35:00.216Z,56
2023-04-19T09:40:00.199Z,55
2023-04-19T09:50:00.786Z,53
2023-04-19T09:55:00.491Z,53
2023-04-19T10:00:00.252Z,52
2023-04-19T10:05:16.535Z,51
2023-04-19T10:10:11.852Z,51
2023-04-19T10:15:00.515Z,52
2023-04-19T10:20:00.280Z,52
2023-04-19T10:25:00.249Z,52
2023-04-19T10:30:00.304Z,51
2023-04-19T10:35:00.247Z,51
2023-04-19T10:40:00.327Z,52
2023-04-19T10:45:00.252Z,51
2023-04-19T10:50:00.287Z,51
2023-04-19T10:55:00.286Z,51
2023-04-19T11:00:00.408Z,50
2023-04-19T11:05:00.244Z,49
2023-04-19T11:10:00.274Z,50
2023-04-19T11:15:00.289Z,50
2023-04-19T11:20:00.299Z,49
2023-04-19T11:25:00.217Z,48
2023-04-19T11:30:00.261Z,48
2023-04-19T11:35:00.250Z,48
2023-04-19T11:40:01.575Z,48
2023-04-19T11:45:00.242Z,48
2023-04-19T11:50:00.250Z,48
2023-04-19T11:55:00.249Z,47
2023-04-19T12:00:00.288Z,48
2023-04-19T12:05:00.470Z,48
2023-04-19T12:10:00.238Z,47
2023-04-19T12:15:00.284Z,46
2023-04-19T12:20:00.304Z,45
2023-04-19T12:25:00.320Z,46
2023-04-19T12:30:00.274Z,46
2023-04-19T12:35:00.264Z,45
2023-04-19T12:40:00.270Z,45
2023-04-19T12:45:00.218Z,45
2023-04-19T12:50:00.250Z,44
2023-04-19T12:55:00.292Z,45
2023-04-19T13:00:00.255Z,45
2023-04-19T13:05:00.278Z,44
2023-04-19T13:10:00.272Z,41
2023-04-19T13:15:02.624Z,41
2023-04-19T13:20:00.300Z,41
2023-04-19T13:25:00.245Z,40
2023-04-19T13:30:00.297Z,41
2023-04-19T13:35:00.205Z,40
2023-04-19T13:40:14.905Z,40
2023-04-19T13:45:00.261Z,40
2023-04-19T13:50:00.306Z,40
2023-04-19T13:55:00.301Z,40
2023-04-19T14:00:00.273Z,40
2023-04-19T14:05:00.305Z,40
2023-04-19T14:10:00.276Z,41
2023-04-19T14:15:00.270Z,40
2023-04-19T14:20:00.476Z,41
2023-04-19T14:25:00.408Z,41
2023-04-19T14:30:00.291Z,41
2023-04-19T14:35:00.225Z,41
2023-04-19T14:40:00.273Z,39
2023-04-19T14:45:00.290Z,39
2023-04-19T14:50:00.291Z,39
2023-04-19T14:55:00.336Z,38
2023-04-19T15:00:00.399Z,38
2023-04-19T15:05:00.517Z,39
2023-04-19T15:10:00.388Z,38
2023-04-19T15:15:00.271Z,36
2023-04-19T15:20:00.365Z,37
2023-04-19T15:25:00.287Z,36
2023-04-19T15:30:00.304Z,36
2023-04-19T15:35:00.280Z,36
2023-04-19T15:40:00.285Z,36
2023-04-19T15:45:00.292Z,36
2023-04-19T15:50:00.280Z,36
2023-04-19T15:55:00.261Z,36
2023-04-19T16:00:00.332Z,35
2023-04-19T16:05:00.351Z,36
2023-04-19T16:10:00.294Z,36
2023-04-19T16:15:00.255Z,36
2023-04-19T16:20:00.254Z,36
2023-04-19T16:25:00.250Z,36
2023-04-19T16:30:00.260Z,36
2023-04-19T16:35:00.269Z,36
2023-04-19T16:40:00.305Z,35
2023-04-19T16:45:00.228Z,35
2023-04-19T16:50:00.252Z,36
2023-04-19T16:55:00.290Z,36
2023-04-19T17:00:00.374Z,36
2023-04-19T17:05:00.679Z,36
2023-04-19T17:10:00.259Z,36
2023-04-19T17:15:00.269Z,36
2023-04-19T17:20:00.265Z,36
2023-04-19T17:25:00.229Z,37
2023-04-19T17:30:00.321Z,37
2023-04-19T17:35:00.278Z,37
2023-04-19T17:40:00.264Z,38
2023-04-19T17:45:00.481Z,38
2023-04-19T17:50:00.276Z,38
2023-04-19T17:55:00.283Z,39
2023-04-19T18:00:00.299Z,39
2023-04-19T18:05:00.472Z,39
2023-04-19T18:10:00.262Z,39
2023-04-19T18:15:00.306Z,40
2023-04-19T18:20:00.279Z,40
2023-04-19T18:25:00.278Z,41
2023-04-19T18:30:00.294Z,41
2023-04-19T18:35:00.264Z,41
2023-04-19T18:40:00.360Z,41
2023-04-19T18:45:00.285Z,42
2023-04-19T18:50:05.931Z,42
2023-04-19T18:55:00.319Z,42
2023-04-19T19:00:00.316Z,43
2023-04-19T19:05:01.975Z,43
2023-04-19T19:10:01.521Z,43
2023-04-19T19:15:00.248Z,43
2023-04-19T19:20:00.322Z,44
2023-04-19T19:25:01.269Z,44
2023-04-19T19:30:00.566Z,44
2023-04-19T19:40:04.163Z,45
2023-04-19T19:45:00.314Z,45
2023-04-19T19:55:00.327Z,45
2023-04-19T20:00:18.033Z,45
2023-04-19T20:05:00.313Z,46
2023-04-19T20:10:00.317Z,46
2023-04-19T20:15:00.196Z,46
2023-04-19T20:20:00.228Z,46
2023-04-19T20:25:00.234Z,46
2023-04-19T20:30:00.219Z,46
2023-04-19T20:35:00.269Z,47
2023-04-19T20:40:00.224Z,47
2023-04-19T20:45:00.330Z,47
2023-04-19T20:50:00.236Z,47
2023-04-19T20:55:00.172Z,47
2023-04-19T21:00:00.194Z,47
2023-04-19T21:05:00.273Z,47
2023-04-19T21:10:00.227Z,47
2023-04-19T21:15:00.319Z,47
2023-04-19T21:20:00.234Z,47
2023-04-19T21:25:00.289Z,47
2023-04-19T21:30:00.151Z,47
2023-04-19T21:35:00.188Z,47
2023-04-19T21:40:00.168Z,47
2023-04-19T21:45:00.216Z,47
2023-04-19T21:50:00.201Z,47
2023-04-19T21:55:00.225Z,47
2023-04-19T22:00:00.258Z,47
2023-04-19T22:05:00.339Z,47
2023-04-19T22:10:00.202Z,46
2023-04-19T22:15:00.289Z,46
2023-04-19T22:20:00.216Z,46
2023-04-19T22:25:00.260Z,46
2023-04-19T22:30:00.213Z,46
2023-04-19T22:35:00.295Z,46
2023-04-19T22:40:00.194Z,46
2023-04-19T22:45:00.225Z,46
2023-04-19T22:50:00.172Z,47
2023-04-19T22:55:00.281Z,47
2023-04-19T23:00:00.232Z,46
2023-04-19T23:05:00.435Z,46
2023-04-19T23:10:00.244Z,46
2023-04-19T23:15:00.216Z,47
2023-04-19T23:20:00.243Z,47
2023-04-19T23:25:00.218Z,47
2023-04-19T23:30:00.292Z,47
2023-04-19T23:35:00.253Z,47
2023-04-19T23:40:00.225Z,48
2023-04-19T23:45:00.223Z,48
2023-04-19T23:50:00.344Z,48
2023-04-19T23:55:00.229Z,48
